Time;durP1;ratioP1;P1;durP2;ratioP2;P2;SDS_P1;SDS_P2;PMS_P1;PMS_P2;Temp;Humidity;BMP_temperature;BMP_pressure;BME280_temperature;BME280_humidity;BME280_pressure;Samples;Min_cycle;Max_cycle;Signal;HPM_P1;HPM_P2
2022/03/14 00:01:15;;;;;;;16.27;10.77;;;9.60;95.60;;;;;;5035884;28;20128;-69
2022/03/14 00:03:45;;;;;;;18.20;12.45;;;9.60;99.90;;;;;;5053053;28;20103;-69
2022/03/14 00:06:12;;;;;;;17.90;10.95;;;9.10;99.90;;;;;;5036644;28;20040;-69
2022/03/14 00:08:41;;;;;;;15.77;10.07;;;;;;;;;;5053863;28;20049;-69
2022/03/14 00:11:07;;;;;;;18.75;11.38;;;;;;;;;;5054444;28;20387;-69
2022/03/14 00:13:33;;;;;;;17.70;10.85;;;;;;;;;;5035861;28;20482;-69
2022/03/14 00:15:59;;;;;;;18.25;11.93;;;;;;;;;;5054457;28;20390;-69
2022/03/14 00:18:27;;;;;;;16.38;10.93;;;;;;;;;;5053926;28;20486;-69
2022/03/14 00:20:53;;;;;;;17.40;11.05;;;9.70;99.90;;;;;;5018961;28;20041;-68
2022/03/14 00:23:19;;;;;;;20.10;11.13;;;9.60;99.90;;;;;;5036195;28;20063;-69
2022/03/14 00:25:45;;;;;;;17.05;10.73;;;;;;;;;;5054055;28;20037;-68
2022/03/14 00:28:12;;;;;;;15.77;10.32;;;9.60;99.90;;;;;;5053135;28;20043;-69
2022/03/14 00:30:38;;;;;;;17.77;11.10;;;;;;;;;;5054422;28;20095;-69
2022/03/14 00:33:04;;;;;;;17.85;11.43;;;;;;;;;;5027175;28;20474;-69
2022/03/14 00:35:30;;;;;;;18.05;11.70;;;;;;;;;;5015129;28;20057;-69
2022/03/14 00:37:56;;;;;;;16.60;10.63;;;;;;;;;;5033875;28;20383;-69
2022/03/14 00:40:22;;;;;;;18.40;10.60;;;9.80;99.90;;;;;;5033831;28;20048;-68
2022/03/14 00:42:50;;;;;;;19.10;12.18;;;9.20;99.90;;;;;;5049520;28;20064;-69
2022/03/14 00:45:17;;;;;;;15.43;10.82;;;;;;;;;;5019441;28;20434;-69
2022/03/14 00:47:43;;;;;;;17.33;12.20;;;;;;;;;;5035921;28;20041;-69
2022/03/14 00:50:09;;;;;;;16.90;12.27;;;9.30;99.90;;;;;;5034976;28;20079;-68
2022/03/14 00:52:35;;;;;;;18.30;10.95;;;9.30;99.90;;;;;;5036112;28;20450;-69
2022/03/14 00:55:00;;;;;;;17.23;10.52;;;9.40;99.90;;;;;;5053437;28;20115;-69
2022/03/14 00:57:26;;;;;;;18.50;11.68;;;9.50;99.90;;;;;;5051697;28;20041;-69
2022/03/14 00:59:52;;;;;;;20.95;11.68;;;9.40;99.90;;;;;;5053425;28;20037;-69
2022/03/14 01:02:18;;;;;;;17.52;12.18;;;;;;;;;;5053428;28;20558;-68
2022/03/14 01:04:43;;;;;;;16.38;11.27;;;9.30;99.90;;;;;;5034730;28;20040;-68
2022/03/14 01:07:09;;;;;;;15.30;9.88;;;;;;;;;;5053413;28;20398;-68
2022/03/14 01:09:35;;;;;;;18.08;10.60;;;;;;;;;;5035828;28;20381;-69
2022/03/14 01:12:02;;;;;;;18.23;11.65;;;9.40;99.90;;;;;;5034707;28;20040;-69
2022/03/14 01:14:28;;;;;;;17.55;11.30;;;9.20;99.90;;;;;;5053337;28;20041;-69
2022/03/14 01:16:54;;;;;;;17.27;12.13;;;;;;;;;;5052095;28;20112;-68
2022/03/14 01:19:20;;;;;;;15.50;10.20;;;9.30;99.90;;;;;;5053153;28;20033;-68
2022/03/14 01:21:47;;;;;;;16.75;11.30;;;9.40;99.90;;;;;;5034829;28;20045;-68
2022/03/14 01:24:13;;;;;;;17.95;12.57;;;;;;;;;;5052212;28;20115;-68
2022/03/14 01:26:38;;;;;;;18.40;11.68;;;8.90;99.90;;;;;;5052995;28;20052;-69
2022/03/14 01:29:05;;;;;;;15.75;11.15;;;9.00;99.90;;;;;;5034979;28;20041;-68
2022/03/14 01:31:31;;;;;;;17.48;11.68;;;;;;;;;;5033985;28;20044;-68
2022/03/14 01:33:58;;;;;;;17.48;11.52;;;;;;;;;;5052606;28;20094;-69
2022/03/14 01:36:24;;;;;;;15.40;12.13;;;;;;;;;;5052749;28;20041;-68
2022/03/14 01:38:50;;;;;;;17.05;12.15;;;;;;;;;;5034228;28;20040;-68
2022/03/14 01:41:18;;;;;;;16.92;11.98;;;9.00;99.90;;;;;;5034390;28;20057;-68
2022/03/14 01:43:44;;;;;;;17.67;12.00;;;9.00;99.90;;;;;;5034940;28;20044;-68
2022/03/14 01:46:10;;;;;;;18.20;12.40;;;;;;;;;;5051935;28;20060;-68
2022/03/14 01:48:37;;;;;;;16.92;12.02;;;;;;;;;;5052928;28;20094;-68
2022/03/14 01:51:03;;;;;;;21.25;13.32;;;;;;;;;;5052516;28;20040;-68
2022/03/14 01:53:31;;;;;;;19.58;12.95;;;9.00;99.90;;;;;;5051595;28;20033;-68
2022/03/14 01:55:57;;;;;;;17.92;12.88;;;;;;;;;;5034368;28;20052;-68
2022/03/14 01:58:23;;;;;;;19.45;13.02;;;9.00;99.90;;;;;;5034360;28;20492;-68
2022/03/14 02:00:50;;;;;;;20.95;13.35;;;;;;;;;;5033490;28;20037;-68
2022/03/14 02:03:16;;;;;;;18.98;12.35;;;;;;;;;;5034311;28;20115;-68
2022/03/14 02:05:45;;;;;;;18.27;13.10;;;;;;;;;;5034355;28;20045;-68
2022/03/14 02:08:12;;;;;;;21.73;12.57;;;;;;;;;;5051450;28;20047;-68
2022/03/14 02:10:38;;;;;;;18.33;12.60;;;;;;;;;;5052131;28;20044;-68
2022/03/14 02:13:08;;;;;;;17.10;12.38;;;8.90;99.90;;;;;;5051748;28;20482;-68
2022/03/14 02:15:34;;;;;;;14.75;10.75;;;;;;;;;;5034265;28;20041;-68
2022/03/14 02:18:01;;;;;;;21.35;14.50;;;;;;;;;;5034505;28;20055;-68
2022/03/14 02:20:27;;;;;;;19.60;11.43;;;;;;;;;;5033345;28;20471;-68
2022/03/14 02:22:53;;;;;;;17.50;11.93;;;;;;;;;;5033948;28;20102;-69
2022/03/14 02:25:19;;;;;;;19.15;12.63;;;8.60;99.90;;;;;;5017585;28;20044;-68
2022/03/14 02:27:45;;;;;;;17.02;11.95;;;8.80;99.90;;;;;;5033575;28;20036;-69
2022/03/14 02:30:11;;;;;;;20.35;13.38;;;9.10;99.90;;;;;;5051883;28;20502;-68
2022/03/14 02:32:41;;;;;;;18.17;11.52;;;;;;;;;;5052189;28;20045;-68
2022/03/14 02:35:08;;;;;;;21.17;13.88;;;9.10;99.90;;;;;;5033670;28;20127;-69
2022/03/14 02:37:33;;;;;;;19.48;13.60;;;8.90;99.90;;;;;;5050947;28;20486;-69
2022/03/14 02:40:00;;;;;;;21.98;14.60;;;;;;;;;;5034051;28;20661;-69
2022/03/14 02:42:26;;;;;;;19.33;13.52;;;;;;;;;;5033023;28;20198;-69
2022/03/14 02:44:52;;;;;;;20.98;14.80;;;;;;;;;;5033713;28;20049;-69
2022/03/14 02:47:19;;;;;;;19.98;13.70;;;;;;;;;;5034325;28;20389;-69
2022/03/14 02:49:46;;;;;;;17.85;12.50;;;8.50;99.90;;;;;;5050580;28;20128;-69
2022/03/14 02:52:11;;;;;;;19.50;13.15;;;9.40;99.90;;;;;;5051373;28;20088;-69
2022/03/14 02:54:37;;;;;;;24.30;14.75;;;9.00;99.90;;;;;;5033995;28;20095;-69
2022/03/14 02:57:05;;;;;;;18.77;13.25;;;9.00;99.90;;;;;;5051035;28;20424;-69
2022/03/14 02:59:32;;;;;;;18.65;12.48;;;9.10;99.90;;;;;;5034102;28;20084;-69
2022/03/14 03:01:58;;;;;;;19.85;13.75;;;;;;;;;;5051602;28;20103;-69
2022/03/14 03:04:24;;;;;;;19.65;12.88;;;9.30;99.90;;;;;;5033010;28;20041;-69
2022/03/14 03:06:50;;;;;;;18.67;12.80;;;9.30;99.90;;;;;;5033441;28;20551;-69
2022/03/14 03:09:16;;;;;;;20.63;13.20;;;;;;;;;;5051670;28;20043;-68
2022/03/14 03:11:42;;;;;;;17.60;12.25;;;;;;;;;;5050730;28;20037;-69
2022/03/14 03:14:09;;;;;;;18.58;12.57;;;8.70;99.90;;;;;;5033700;28;20052;-68
2022/03/14 03:16:35;;;;;;;20.25;12.90;;;;;;;;;;5033220;28;20048;-68
2022/03/14 03:19:03;;;;;;;19.40;12.60;;;;;;;;;;5033719;28;20091;-68
2022/03/14 03:21:29;;;;;;;17.08;12.00;;;;;;;;;;5052575;28;20077;-68
2022/03/14 03:23:55;;;;;;;19.67;12.82;;;;;;;;;;5036725;28;20044;-68
2022/03/14 03:26:21;;;;;;;16.50;12.48;;;8.50;99.90;;;;;;5055294;28;20119;-69
2022/03/14 03:28:47;;;;;;;16.38;11.77;;;9.20;99.90;;;;;;5055257;28;20037;-68
2022/03/14 03:31:16;;;;;;;18.17;12.30;;;8.70;99.90;;;;;;5036415;28;20044;-68
2022/03/14 03:33:43;;;;;;;17.10;12.27;;;8.90;99.90;;;;;;5054921;28;20066;-68
2022/03/14 03:36:09;;;;;;;19.98;12.45;;;;;;;;;;5054963;28;20082;-68
2022/03/14 03:38:36;;;;;;;20.70;11.55;;;8.90;99.90;;;;;;5033178;28;20478;-68
2022/03/14 03:41:03;;;;;;;16.70;11.88;;;8.90;99.90;;;;;;5017310;28;20045;-68
2022/03/14 03:43:29;;;;;;;18.92;11.68;;;8.80;99.90;;;;;;5016817;28;20391;-68
2022/03/14 03:45:55;;;;;;;16.50;11.40;;;9.10;99.90;;;;;;5034030;28;20044;-68
2022/03/14 03:48:21;;;;;;;14.73;9.75;;;9.00;99.90;;;;;;5034802;28;20056;-68
2022/03/14 03:50:48;;;;;;;16.77;10.90;;;;;;;;;;5035003;28;20080;-68
2022/03/14 03:53:14;;;;;;;16.23;10.98;;;;;;;;;;5035640;28;20047;-68
2022/03/14 03:55:40;;;;;;;14.35;10.10;;;;;;;;;;5037094;28;20045;-69
2022/03/14 03:58:06;;;;;;;16.55;10.75;;;8.50;99.90;;;;;;5054815;28;20504;-69
2022/03/14 04:00:31;;;;;;;15.27;9.77;;;9.00;99.90;;;;;;5053947;28;20124;-69
2022/03/14 04:02:57;;;;;;;14.55;9.60;;;;;;;;;;5036297;28;20120;-68
2022/03/14 04:05:25;;;;;;;13.23;9.07;;;8.60;99.90;;;;;;5054534;28;20041;-69
2022/03/14 04:07:54;;;;;;;14.60;9.32;;;;;;;;;;5035837;28;20048;-69
2022/03/14 04:10:20;;;;;;;12.93;9.43;;;;;;;;;;5036594;28;20116;-69
2022/03/14 04:12:48;;;;;;;14.38;9.80;;;8.60;99.90;;;;;;5036104;28;20402;-69
2022/03/14 04:15:15;;;;;;;15.18;9.38;;;;;;;;;;5054150;28;20041;-68
2022/03/14 04:17:42;;;;;;;14.98;9.57;;;9.50;99.90;;;;;;5036219;28;20040;-68
2022/03/14 04:20:11;;;;;;;14.20;9.07;;;9.20;99.90;;;;;;5053548;28;20033;-69
2022/03/14 04:22:40;;;;;;;12.70;8.25;;;8.90;99.90;;;;;;5054025;28;20081;-69
2022/03/14 04:25:09;;;;;;;13.50;8.65;;;8.80;99.90;;;;;;5054468;28;20044;-69
2022/03/14 04:27:35;;;;;;;14.13;9.25;;;;;;;;;;5035733;28;20508;-69
2022/03/14 04:30:00;;;;;;;12.13;8.30;;;9.20;99.90;;;;;;5019707;28;20076;-68
2022/03/14 04:32:26;;;;;;;12.02;7.38;;;8.90;99.90;;;;;;5034850;28;20118;-68
2022/03/14 04:34:53;;;;;;;12.57;8.52;;;;;;;;;;5018673;28;20076;-68
2022/03/14 04:37:19;;;;;;;11.43;7.35;;;;;;;;;;5053702;28;20062;-68
2022/03/14 04:39:46;;;;;;;11.93;8.10;;;;;;;;;;5054047;28;20040;-68
2022/03/14 04:42:12;;;;;;;12.30;7.82;;;;;;;;;;5031870;28;20054;-68
2022/03/14 04:44:38;;;;;;;15.65;8.60;;;;;;;;;;5016295;28;20056;-69
2022/03/14 04:47:04;;;;;;;11.70;7.68;;;9.10;99.90;;;;;;5033971;28;20081;-69
2022/03/14 04:49:30;;;;;;;11.40;6.75;;;;;;;;;;5031846;28;20077;-69
2022/03/14 04:51:57;;;;;;;12.07;7.97;;;;;;;;;;5032158;28;20046;-69
2022/03/14 04:54:23;;;;;;;10.45;7.03;;;;;;;;;;5032636;28;20053;-69
2022/03/14 04:56:49;;;;;;;12.98;7.35;;;;;;;;;;5031785;28;20561;-69
2022/03/14 04:59:16;;;;;;;10.57;6.57;;;;;;;;;;5033486;28;20038;-69
2022/03/14 05:01:42;;;;;;;11.65;8.07;;;;;;;;;;5032033;28;20096;-69
2022/03/14 05:04:08;;;;;;;11.40;7.93;;;;;;;;;;5031297;28;20160;-69
2022/03/14 05:06:34;;;;;;;12.85;8.55;;;;;;;;;;5032322;28;20034;-69
2022/03/14 05:09:01;;;;;;;10.35;6.32;;;;;;;;;;5032730;28;20038;-69
2022/03/14 05:11:27;;;;;;;11.25;6.22;;;;;;;;;;5033305;28;20049;-69
2022/03/14 05:13:53;;;;;;;7.93;5.47;;;;;;;;;;5032094;28;20049;-69
2022/03/14 05:16:19;;;;;;;7.25;4.40;;;;;;;;;;5031192;28;20049;-69
2022/03/14 05:18:46;;;;;;;8.25;4.38;;;9.20;99.90;;;;;;5031763;28;20046;-69
2022/03/14 05:21:11;;;;;;;7.75;4.38;;;8.90;99.90;;;;;;5031771;28;20128;-68
2022/03/14 05:23:37;;;;;;;6.00;3.47;;;9.20;99.90;;;;;;5031209;28;20124;-69
2022/03/14 05:26:04;;;;;;;6.88;3.33;;;9.20;99.90;;;;;;5015301;28;20112;-69
2022/03/14 05:28:30;;;;;;;6.55;3.30;;;9.00;99.90;;;;;;5014809;28;20121;-69
2022/03/14 05:30:55;;;;;;;6.00;3.13;;;8.90;99.90;;;;;;5030957;28;20116;-69
2022/03/14 05:33:21;;;;;;;5.32;2.92;;;9.30;99.90;;;;;;5032974;28;20041;-69
2022/03/14 05:35:48;;;;;;;5.35;2.85;;;9.60;99.90;;;;;;5031494;28;20050;-69
2022/03/14 05:38:14;;;;;;;5.75;3.28;;;9.90;99.90;;;;;;5014550;28;20049;-69
2022/03/14 05:40:40;;;;;;;5.72;3.15;;;;;;;;;;5032730;28;20037;-69
2022/03/14 05:43:11;;;;;;;6.05;3.00;;;9.40;99.90;;;;;;5034352;28;20497;-69
2022/03/14 05:45:37;;;;;;;7.13;3.00;;;9.20;99.90;;;;;;5034221;28;20490;-68
2022/03/14 05:48:03;;;;;;;6.10;3.40;;;9.40;99.90;;;;;;5052452;28;20037;-69
2022/03/14 05:50:29;;;;;;;8.13;4.43;;;9.50;99.90;;;;;;5034363;28;20037;-69
2022/03/14 05:52:55;;;;;;;7.15;3.75;;;10.00;99.90;;;;;;5051712;28;20036;-69
2022/03/14 05:55:21;;;;;;;5.55;3.30;;;9.20;99.90;;;;;;5052381;28;20037;-69
2022/03/14 05:57:47;;;;;;;8.88;4.55;;;9.00;99.90;;;;;;5034047;28;20099;-69
2022/03/14 06:00:20;;;;;;;6.53;3.50;;;9.00;99.90;;;;;;5051593;28;20037;-69
2022/03/14 06:02:47;;;;;;;6.97;4.05;;;8.90;99.90;;;;;;5034482;28;20055;-69
2022/03/14 06:05:13;;;;;;;7.25;4.00;;;9.30;99.90;;;;;;5033672;28;20048;-69
2022/03/14 06:07:38;;;;;;;7.43;4.70;;;9.10;99.90;;;;;;5052349;28;20041;-68
2022/03/14 06:10:05;;;;;;;8.35;4.65;;;9.20;99.90;;;;;;5034271;28;20041;-69
2022/03/14 06:12:30;;;;;;;10.63;5.28;;;9.40;99.90;;;;;;5033465;28;20032;-68
2022/03/14 06:15:02;;;;;;;9.13;5.28;;;9.20;99.90;;;;;;5034012;28;20455;-68
2022/03/14 06:17:28;;;;;;;9.68;6.03;;;10.00;99.90;;;;;;5034290;28;20110;-69
2022/03/14 06:19:54;;;;;;;8.68;4.90;;;9.40;99.90;;;;;;5051075;28;20440;-68
2022/03/14 06:22:22;;;;;;;9.88;5.63;;;8.70;99.90;;;;;;5052012;28;20044;-68
2022/03/14 06:24:49;;;;;;;9.52;5.65;;;9.30;99.90;;;;;;5034176;28;20052;-68
2022/03/14 06:27:15;;;;;;;10.77;6.93;;;9.40;99.90;;;;;;5049473;28;20485;-69
2022/03/14 06:29:42;;;;;;;10.00;6.43;;;9.00;99.90;;;;;;5033026;28;20029;-68
2022/03/14 06:32:08;;;;;;;8.63;5.53;;;9.40;99.90;;;;;;5032036;28;20056;-68
2022/03/14 06:34:34;;;;;;;10.77;5.93;;;9.10;99.90;;;;;;5013826;28;20052;-69
2022/03/14 06:36:59;;;;;;;8.25;4.78;;;9.50;99.90;;;;;;5031992;28;20401;-69
2022/03/14 06:39:25;;;;;;;7.25;3.88;;;9.10;99.90;;;;;;5031894;28;20041;-69
2022/03/14 06:41:51;;;;;;;6.60;3.80;;;9.00;99.90;;;;;;5039803;28;20064;-69
2022/03/14 06:44:18;;;;;;;6.32;3.50;;;8.90;99.90;;;;;;5033557;28;20037;-69
2022/03/14 06:46:44;;;;;;;7.00;3.72;;;9.30;99.90;;;;;;5051746;28;20048;-69
2022/03/14 06:49:13;;;;;;;6.07;3.30;;;8.90;99.90;;;;;;5032816;28;20087;-69
2022/03/14 06:51:42;;;;;;;6.90;3.28;;;9.50;99.90;;;;;;5034042;28;20124;-69
2022/03/14 06:54:09;;;;;;;8.07;4.00;;;9.40;99.90;;;;;;5051923;28;20071;-69
2022/03/14 06:56:37;;;;;;;6.55;3.17;;;;;;;;;;5049874;28;20574;-69
2022/03/14 06:59:03;;;;;;;6.35;3.53;;;9.50;99.90;;;;;;5037600;28;20048;-69
2022/03/14 07:01:30;;;;;;;6.30;3.47;;;;;;;;;;5052178;28;20048;-69
2022/03/14 07:03:56;;;;;;;6.38;3.08;;;9.30;99.90;;;;;;5052175;28;20041;-69
2022/03/14 07:06:22;;;;;;;7.07;3.20;;;9.60;99.90;;;;;;5048807;28;20037;-69
2022/03/14 07:08:47;;;;;;;6.63;3.33;;;9.20;99.90;;;;;;5033740;28;20147;-69
2022/03/14 07:11:13;;;;;;;6.43;2.72;;;;;;;;;;5034595;28;20438;-69
2022/03/14 07:13:39;;;;;;;6.03;3.70;;;;;;;;;;5052960;28;20060;-69
2022/03/14 07:16:05;;;;;;;7.43;3.25;;;;;;;;;;5051757;28;20498;-69
2022/03/14 07:18:32;;;;;;;7.18;3.75;;;;;;;;;;5034149;28;20047;-69
2022/03/14 07:20:58;;;;;;;6.60;3.83;;;9.60;99.90;;;;;;5051371;28;20045;-69
2022/03/14 07:23:24;;;;;;;6.70;3.50;;;;;;;;;;5032269;28;20071;-69
2022/03/14 07:25:50;;;;;;;7.65;3.58;;;;;;;;;;5051590;28;20075;-70
2022/03/14 07:28:17;;;;;;;7.93;4.35;;;9.70;99.90;;;;;;5050540;28;20470;-69
2022/03/14 07:30:43;;;;;;;6.50;3.97;;;9.60;99.90;;;;;;5033815;28;20747;-70
2022/03/14 07:33:09;;;;;;;6.50;3.92;;;;;;;;;;5034026;28;20037;-70
2022/03/14 07:35:36;;;;;;;8.40;4.50;;;;;;;;;;5052689;28;20056;-70
2022/03/14 07:38:03;;;;;;;7.85;3.80;;;9.60;99.90;;;;;;5034342;28;20041;-70
2022/03/14 07:40:29;;;;;;;8.82;4.18;;;;;;;;;;5034320;28;20052;-70
2022/03/14 07:42:59;;;;;;;6.88;3.60;;;9.50;99.90;;;;;;5033900;28;20535;-69
2022/03/14 07:45:26;;;;;;;7.70;3.78;;;9.90;99.90;;;;;;5051047;28;20040;-70
2022/03/14 07:47:57;;;;;;;6.97;4.25;;;9.40;99.90;;;;;;5049541;28;20087;-70
2022/03/14 07:50:24;;;;;;;6.35;3.95;;;9.70;99.90;;;;;;5052454;28;20049;-69
2022/03/14 07:52:50;;;;;;;6.68;3.90;;;9.90;99.90;;;;;;5050421;28;20516;-69
2022/03/14 07:55:16;;;;;;;7.43;4.70;;;9.60;99.90;;;;;;5015996;28;20795;-69
2022/03/14 07:57:42;;;;;;;9.05;5.50;;;;;;;;;;5048911;28;20041;-69
2022/03/14 08:00:14;;;;;;;9.10;6.05;;;9.80;99.90;;;;;;5050114;28;20520;-69
2022/03/14 08:02:40;;;;;;;8.32;5.93;;;10.00;99.90;;;;;;5051862;28;20052;-69
2022/03/14 08:05:07;;;;;;;11.52;6.22;;;9.60;99.90;;;;;;5057166;28;20037;-69
2022/03/14 08:07:34;;;;;;;13.75;5.75;;;10.00;99.90;;;;;;5034059;28;20108;-69
2022/03/14 08:10:01;;;;;;;12.02;6.32;;;9.70;99.90;;;;;;5051363;28;20045;-70
2022/03/14 08:12:27;;;;;;;9.98;6.38;;;;;;;;;;5050249;28;20143;-70
2022/03/14 08:14:53;;;;;;;13.45;6.82;;;;;;;;;;5051451;28;20045;-69
2022/03/14 08:17:19;;;;;;;11.68;6.90;;;9.80;99.90;;;;;;5060656;28;20065;-71
2022/03/14 08:19:45;;;;;;;10.75;7.30;;;9.70;99.90;;;;;;5050445;28;20051;-69
2022/03/14 08:22:11;;;;;;;10.15;7.03;;;;;;;;;;5051071;28;20171;-70
2022/03/14 08:24:37;;;;;;;11.68;7.82;;;10.20;99.90;;;;;;5034407;28;20052;-69
2022/03/14 08:27:03;;;;;;;11.70;8.50;;;10.20;99.90;;;;;;5032539;28;20037;-70
2022/03/14 08:29:29;;;;;;;11.93;8.65;;;9.80;99.90;;;;;;5050249;28;20083;-69
2022/03/14 08:31:58;;;;;;;11.65;8.10;;;9.80;99.90;;;;;;5032334;28;20106;-69
2022/03/14 08:34:24;;;;;;;12.55;8.40;;;10.00;99.90;;;;;;5032683;28;20045;-69
2022/03/14 08:36:50;;;;;;;12.35;7.90;;;10.20;99.90;;;;;;5051509;28;20116;-69
2022/03/14 08:39:15;;;;;;;12.77;9.18;;;10.10;99.90;;;;;;5053313;28;20537;-70
2022/03/14 08:41:42;;;;;;;11.77;8.43;;;;;;;;;;5052032;28;20060;-69
2022/03/14 08:44:08;;;;;;;13.32;9.13;;;9.40;99.90;;;;;;5019059;28;20087;-70
2022/03/14 08:46:34;;;;;;;12.10;9.07;;;9.70;99.90;;;;;;5035258;28;20041;-70
2022/03/14 08:49:00;;;;;;;14.10;9.98;;;10.30;99.90;;;;;;5018391;28;20047;-70
2022/03/14 08:51:26;;;;;;;12.70;9.10;;;9.60;99.90;;;;;;5035392;28;20104;-70
2022/03/14 08:53:52;;;;;;;17.10;10.60;;;10.00;99.90;;;;;;5053653;28;20048;-70
2022/03/14 08:56:18;;;;;;;15.52;10.02;;;;;;;;;;5052349;28;20079;-70
2022/03/14 08:58:43;;;;;;;14.65;10.82;;;10.10;99.90;;;;;;5052591;28;20033;-70
2022/03/14 09:01:10;;;;;;;14.98;10.55;;;9.70;99.90;;;;;;5034217;28;20041;-69
2022/03/14 09:03:37;;;;;;;19.30;13.25;;;9.50;99.90;;;;;;5034911;28;20060;-70
2022/03/14 09:06:04;;;;;;;18.75;13.05;;;10.20;99.90;;;;;;5053128;28;20037;-70
2022/03/14 09:08:29;;;;;;;18.15;13.32;;;9.50;99.90;;;;;;5051144;28;20033;-70
2022/03/14 09:10:58;;;;;;;17.98;12.77;;;9.60;99.90;;;;;;5052613;28;20056;-70
2022/03/14 09:13:24;;;;;;;16.88;12.65;;;9.50;99.90;;;;;;5053085;28;20529;-69
2022/03/14 09:15:50;;;;;;;17.35;12.70;;;10.00;99.90;;;;;;5053083;28;20166;-69
2022/03/14 09:18:17;;;;;;;20.05;13.68;;;10.20;99.90;;;;;;5034485;28;20111;-70
2022/03/14 09:20:44;;;;;;;19.85;13.15;;;9.60;99.90;;;;;;5053386;28;20051;-70
2022/03/14 09:23:10;;;;;;;21.02;13.55;;;9.60;99.90;;;;;;5052231;28;20041;-69
2022/03/14 09:25:36;;;;;;;18.92;11.18;;;9.40;99.90;;;;;;5053084;28;20099;-69
2022/03/14 09:28:03;;;;;;;19.60;12.23;;;9.20;99.90;;;;;;5052673;28;20033;-69
2022/03/14 09:30:29;;;;;;;22.77;13.32;;;9.20;99.90;;;;;;5052270;28;20032;-69
2022/03/14 09:32:55;;;;;;;22.50;13.77;;;9.50;99.90;;;;;;5034648;28;20051;-69
2022/03/14 09:35:23;;;;;;;27.35;13.82;;;9.30;99.90;;;;;;5052755;28;20033;-69
2022/03/14 09:37:50;;;;;;;28.20;15.32;;;9.60;99.90;;;;;;5051708;28;20465;-69
2022/03/14 09:40:19;;;;;;;25.33;14.57;;;9.50;99.90;;;;;;5034105;28;20048;-70
2022/03/14 09:42:51;;;;;;;26.27;12.43;;;9.10;99.90;;;;;;5034489;28;20128;-69
2022/03/14 09:45:19;;;;;;;24.80;14.43;;;9.60;99.90;;;;;;5033525;28;20549;-69
2022/03/14 09:47:49;;;;;;;24.70;13.52;;;9.10;99.90;;;;;;5034970;28;20076;-69
2022/03/14 09:50:35;;;;;;;23.17;13.48;;;9.40;99.90;;;;;;5051587;28;20375;-70
2022/03/14 09:53:05;;;;;;;21.25;11.35;;;9.30;99.90;;;;;;5052203;28;20048;-69
2022/03/14 09:55:35;;;;;;;23.10;9.88;;;9.60;99.90;;;;;;5034349;28;20159;-70
2022/03/14 09:58:01;;;;;;;18.85;9.23;;;9.20;99.90;;;;;;5033616;28;20128;-70
2022/03/14 10:00:27;;;;;;;20.20;9.95;;;9.70;99.90;;;;;;5034242;28;20128;-70
2022/03/14 10:02:53;;;;;;;21.25;9.88;;;9.00;99.90;;;;;;5052164;28;20041;-70
2022/03/14 10:05:19;;;;;;;15.80;9.25;;;9.30;99.90;;;;;;5033700;28;20076;-70
2022/03/14 10:07:45;;;;;;;17.02;7.97;;;9.20;99.90;;;;;;5052021;28;20044;-70
2022/03/14 10:10:12;;;;;;;19.02;8.75;;;9.90;99.90;;;;;;5051958;28;20032;-70
2022/03/14 10:12:38;;;;;;;14.60;7.13;;;9.70;99.90;;;;;;5033997;28;20049;-70
2022/03/14 10:15:05;;;;;;;17.15;8.40;;;9.50;99.90;;;;;;5052275;28;20044;-69
2022/03/14 10:17:32;;;;;;;15.25;8.32;;;9.50;99.90;;;;;;5033439;28;20047;-69
2022/03/14 10:20:00;;;;;;;16.80;7.05;;;9.80;99.90;;;;;;5033391;28;20509;-69
2022/03/14 10:22:36;;;;;;;16.45;7.15;;;9.60;99.90;;;;;;5034124;28;20045;-70
2022/03/14 10:25:09;;;;;;;22.88;8.98;;;9.60;99.90;;;;;;5050893;28;20033;-70
2022/03/14 10:27:38;;;;;;;18.80;7.90;;;9.70;99.90;;;;;;5052006;28;20445;-70
2022/03/14 10:30:07;;;;;;;12.55;6.78;;;9.80;99.90;;;;;;5032896;28;20037;-69
2022/03/14 10:32:37;;;;;;;13.82;5.35;;;9.80;99.90;;;;;;5038639;28;20055;-68
2022/03/14 10:35:06;;;;;;;15.27;6.82;;;9.80;99.90;;;;;;5015801;28;20041;-67
2022/03/14 10:37:34;;;;;;;14.60;5.50;;;10.00;99.90;;;;;;5034168;28;20542;-68
2022/03/14 10:40:01;;;;;;;13.93;5.18;;;10.00;99.90;;;;;;5051063;28;20033;-68
2022/03/14 10:42:28;;;;;;;11.95;5.53;;;10.20;99.90;;;;;;5033676;28;20052;-68
2022/03/14 10:44:54;;;;;;;18.05;6.32;;;9.60;99.90;;;;;;5034049;28;20497;-68
2022/03/14 10:47:23;;;;;;;13.18;5.70;;;10.10;99.90;;;;;;5049618;28;20114;-68
2022/03/14 10:49:49;;;;;;;11.07;5.70;;;10.20;99.90;;;;;;5051366;28;20571;-68
2022/03/14 10:52:20;;;;;;;15.88;5.47;;;9.70;99.90;;;;;;5033788;28;20370;-68
2022/03/14 10:54:47;;;;;;;13.52;5.80;;;10.40;99.90;;;;;;5016659;28;20045;-68
2022/03/14 10:57:30;;;;;;;16.20;5.63;;;9.60;99.90;;;;;;5034029;28;20127;-68
2022/03/14 10:59:56;;;;;;;11.82;5.40;;;10.20;99.90;;;;;;5051739;28;20040;-68
2022/03/14 11:02:28;;;;;;;14.35;6.10;;;10.10;99.90;;;;;;5050496;28;20033;-68
2022/03/14 11:04:58;;;;;;;14.43;5.97;;;10.30;99.90;;;;;;5033272;28;20519;-68
2022/03/14 11:07:35;;;;;;;13.27;6.03;;;10.30;99.90;;;;;;5018150;28;20486;-67
2022/03/14 11:10:06;;;;;;;12.15;6.63;;;10.30;99.90;;;;;;5033644;28;20037;-68
2022/03/14 11:12:31;;;;;;;13.40;6.35;;;10.50;99.90;;;;;;5034187;28;20129;-68
2022/03/14 11:15:05;;;;;;;17.02;7.60;;;9.80;99.90;;;;;;5050619;28;20199;-67
2022/03/14 11:17:32;;;;;;;16.25;7.00;;;10.20;99.90;;;;;;5033756;28;20040;-68
2022/03/14 11:19:58;;;;;;;13.48;7.15;;;10.40;99.90;;;;;;5047930;28;20474;-68
2022/03/14 11:22:26;;;;;;;12.82;8.00;;;10.20;99.90;;;;;;5025254;28;20049;-68
2022/03/14 11:24:54;;;;;;;13.55;7.15;;;10.20;99.90;;;;;;5047190;28;20051;-68
2022/03/14 11:27:37;;;;;;;19.27;7.90;;;10.50;99.90;;;;;;5030580;28;20037;-68
2022/03/14 11:30:14;;;;;;;20.38;10.80;;;10.30;99.90;;;;;;5033312;28;20124;-65
2022/03/14 11:32:41;;;;;;;17.23;8.90;;;10.40;99.90;;;;;;5046929;28;20056;-64
2022/03/14 11:35:08;;;;;;;18.60;8.73;;;10.20;99.90;;;;;;5031249;28;20128;-64
2022/03/14 11:37:34;;;;;;;23.10;8.82;;;10.40;99.90;;;;;;5048532;28;20045;-64
2022/03/14 11:40:03;;;;;;;21.33;9.93;;;12.20;99.90;;;;;;5048757;28;20043;-64
2022/03/14 11:42:29;;;;;;;18.60;10.52;;;10.50;99.90;;;;;;5050365;28;20144;-65
2022/03/14 11:44:56;;;;;;;18.55;9.68;;;10.50;99.90;;;;;;5051595;28;20162;-64
2022/03/14 11:47:24;;;;;;;16.20;10.10;;;10.60;99.90;;;;;;5034116;28;20049;-64
2022/03/14 11:49:51;;;;;;;19.25;9.55;;;12.00;99.90;;;;;;5033511;28;20508;-65
2022/03/14 11:52:19;;;;;;;21.40;11.30;;;11.50;99.90;;;;;;5034480;28;20500;-64
2022/03/14 11:54:51;;;;;;;21.98;11.10;;;10.60;99.90;;;;;;5034868;28;20044;-64
2022/03/14 11:57:41;;;;;;;19.40;10.50;;;11.00;99.90;;;;;;5051743;28;20045;-65
2022/03/14 12:00:22;;;;;;;20.67;10.98;;;10.40;99.90;;;;;;5048760;28;20044;-65
2022/03/14 12:02:49;;;;;;;23.63;11.55;;;10.30;99.90;;;;;;5035106;28;20448;-65
2022/03/14 12:05:21;;;;;;;23.02;10.75;;;10.80;99.90;;;;;;5051520;28;20394;-65
2022/03/14 12:07:47;;;;;;;21.13;11.18;;;;;;;;;;5046611;28;20091;-65
2022/03/14 12:10:28;;;;;;;18.92;10.05;;;10.60;99.90;;;;;;5051635;28;20072;-65
2022/03/14 12:12:54;;;;;;;18.92;9.90;;;10.60;99.90;;;;;;5051321;28;20045;-64
2022/03/14 12:15:41;;;;;;;23.65;11.45;;;10.40;99.90;;;;;;5052198;28;20041;-65
2022/03/14 12:18:25;;;;;;;19.33;9.93;;;11.00;99.90;;;;;;5032844;28;20040;-65
2022/03/14 12:20:51;;;;;;;19.60;9.27;;;10.70;99.90;;;;;;5034211;28;20045;-65
2022/03/14 12:23:27;;;;;;;19.88;9.50;;;11.00;99.90;;;;;;5033891;28;20132;-65
2022/03/14 12:25:53;;;;;;;20.70;8.50;;;10.70;99.90;;;;;;5050987;28;20024;-65
2022/03/14 12:28:37;;;;;;;17.35;6.93;;;10.90;99.90;;;;;;5034062;28;20083;-65
2022/03/14 12:31:13;;;;;;;26.65;8.55;;;11.00;99.90;;;;;;5050992;28;20386;-64
2022/03/14 12:33:49;;;;;;;17.73;7.53;;;11.10;99.90;;;;;;5037942;28;20575;-64
2022/03/14 12:36:22;;;;;;;17.08;8.00;;;11.40;99.90;;;;;;5033452;28;20060;-64
2022/03/14 12:39:06;;;;;;;13.65;7.05;;;11.30;99.90;;;;;;5051802;28;20049;-65
2022/03/14 12:41:33;;;;;;;16.85;6.40;;;11.60;99.90;;;;;;5031787;28;20061;-65
2022/03/14 12:43:59;;;;;;;19.73;6.68;;;;;;;;;;5016885;28;20394;-65
2022/03/14 12:46:26;;;;;;;17.95;7.35;;;11.40;99.90;;;;;;5033021;28;20055;-64
2022/03/14 12:48:55;;;;;;;15.75;6.38;;;11.80;99.90;;;;;;5051587;28;20044;-65
2022/03/14 12:51:25;;;;;;;16.58;7.30;;;11.60;99.90;;;;;;5051688;28;20458;-64
2022/03/14 12:53:52;;;;;;;17.48;8.00;;;11.60;99.90;;;;;;5031841;28;20044;-63
2022/03/14 12:56:24;;;;;;;16.52;7.45;;;11.40;99.90;;;;;;5033561;28;20063;-64
2022/03/14 12:59:09;;;;;;;17.40;7.32;;;11.70;99.90;;;;;;5032800;28;20041;-63
2022/03/14 13:01:37;;;;;;;13.75;6.68;;;11.80;99.90;;;;;;5026067;28;20060;-63
2022/03/14 13:04:11;;;;;;;11.63;6.40;;;11.70;99.90;;;;;;5032351;28;20041;-63
2022/03/14 13:06:40;;;;;;;13.05;6.65;;;11.80;99.90;;;;;;5034415;28;20116;-63
2022/03/14 13:09:06;;;;;;;15.07;5.85;;;11.60;99.90;;;;;;5066604;28;20036;-63
2022/03/14 13:11:34;;;;;;;12.95;6.75;;;11.70;99.90;;;;;;5050247;28;20037;-63